createdAt,value
2022-09-12T00:01:17.709Z,29.69
2022-09-12T00:03:46.867Z,29.72
2022-09-12T00:06:23.442Z,29.70
2022-09-12T00:09:04.877Z,29.65
2022-09-12T00:11:38.902Z,29.69
2022-09-12T00:14:12.424Z,29.69
2022-09-12T00:16:42.069Z,29.67
2022-09-12T00:19:12.928Z,29.67
2022-09-12T00:21:42.214Z,29.60
2022-09-12T00:24:12.254Z,29.60
2022-09-12T00:26:42.207Z,29.57
2022-09-12T00:29:20.733Z,29.56
2022-09-12T00:31:48.984Z,29.56
2022-09-12T00:34:20.935Z,29.49
2022-09-12T00:36:49.677Z,29.55
2022-09-12T00:39:18.805Z,29.52
2022-09-12T00:41:52.970Z,29.51
2022-09-12T00:44:45.149Z,29.55
2022-09-12T00:47:24.041Z,29.58
2022-09-12T00:50:07.937Z,29.59
2022-09-12T00:53:01.498Z,29.57
2022-09-12T00:55:45.039Z,29.57
2022-09-12T00:58:21.575Z,29.57
2022-09-12T01:00:49.576Z,29.55
2022-09-12T01:03:19.769Z,29.54
2022-09-12T01:06:00.190Z,29.49
2022-09-12T01:08:29.139Z,29.44
2022-09-12T01:10:57.998Z,29.40
2022-09-12T01:13:26.110Z,29.39
2022-09-12T01:15:54.499Z,29.37
2022-09-12T01:18:24.683Z,29.33
2022-09-12T01:21:01.373Z,29.34
2022-09-12T01:23:47.276Z,29.28
2022-09-12T01:26:43.260Z,29.27
2022-09-12T01:29:48.030Z,29.25
2022-09-12T01:32:36.352Z,29.21
2022-09-12T01:35:23.280Z,29.21
2022-09-12T01:38:24.550Z,29.19
2022-09-12T01:41:10.127Z,29.11
2022-09-12T01:44:07.147Z,29.14
2022-09-12T01:47:08.814Z,29.13
2022-09-12T01:50:07.850Z,29.09
2022-09-12T01:52:59.578Z,29.11
2022-09-12T01:55:47.045Z,29.08
2022-09-12T01:58:27.096Z,29.10
2022-09-12T02:01:06.455Z,29.12
2022-09-12T02:03:43.705Z,29.15
2022-09-12T02:06:19.560Z,29.19
2022-09-12T02:08:55.014Z,29.19
2022-09-12T02:11:22.704Z,29.17
2022-09-12T02:13:56.000Z,29.18
2022-09-12T02:16:31.557Z,29.16
2022-09-12T02:19:13.480Z,29.14
2022-09-12T02:22:04.245Z,29.10
2022-09-12T02:24:35.328Z,29.15
2022-09-12T02:27:15.320Z,29.12
2022-09-12T02:29:45.254Z,29.10
2022-09-12T02:32:34.508Z,29.15
2022-09-12T02:35:18.690Z,29.05
2022-09-12T02:38:07.853Z,29.13
2022-09-12T02:40:36.286Z,29.14
2022-09-12T02:43:05.915Z,29.13
2022-09-12T02:45:37.147Z,29.05
2022-09-12T02:48:19.491Z,29.02
2022-09-12T02:50:47.145Z,29.08
2022-09-12T02:53:14.599Z,29.17
2022-09-12T02:55:43.579Z,29.20
2022-09-12T02:58:18.731Z,29.23
2022-09-12T03:01:01.656Z,29.21
2022-09-12T03:03:52.419Z,29.19
2022-09-12T03:06:32.003Z,29.15
2022-09-12T03:09:05.055Z,29.15
2022-09-12T03:11:44.335Z,29.18
2022-09-12T03:14:31.646Z,29.16
2022-09-12T03:17:27.057Z,29.13
2022-09-12T03:20:22.214Z,29.13
2022-09-12T03:22:54.624Z,29.12
2022-09-12T03:25:35.250Z,28.99
2022-09-12T03:28:10.594Z,28.95
2022-09-12T03:30:43.467Z,28.96
2022-09-12T03:33:19.973Z,29.05
2022-09-12T03:35:48.998Z,29.05
2022-09-12T03:38:16.704Z,28.88
2022-09-12T03:40:44.225Z,28.96
2022-09-12T03:43:11.551Z,28.97
2022-09-12T03:45:39.204Z,29.05
2022-09-12T03:48:07.355Z,29.10
2022-09-12T03:50:35.122Z,29.13
2022-09-12T03:53:03.549Z,29.17
2022-09-12T03:55:31.403Z,29.20
2022-09-12T03:57:58.649Z,29.20
2022-09-12T04:00:31.342Z,29.19
2022-09-12T04:02:58.403Z,29.19
2022-09-12T04:05:26.398Z,29.18
2022-09-12T04:07:53.470Z,29.20
2022-09-12T04:10:20.862Z,29.20
2022-09-12T04:12:48.095Z,29.20
2022-09-12T04:15:15.531Z,29.21
2022-09-12T04:17:42.617Z,29.24
2022-09-12T04:20:10.059Z,29.25
2022-09-12T04:22:37.185Z,29.22
2022-09-12T04:25:04.452Z,29.15
2022-09-12T04:27:31.794Z,29.15
2022-09-12T04:30:00.687Z,29.16
2022-09-12T04:32:29.292Z,29.07
2022-09-12T04:34:56.687Z,29.16
2022-09-12T04:37:24.821Z,29.14
2022-09-12T04:39:54.442Z,29.14
2022-09-12T04:42:21.619Z,29.14
2022-09-12T04:44:49.288Z,29.14
2022-09-12T04:47:17.167Z,29.13
2022-09-12T04:49:44.248Z,29.10
2022-09-12T04:52:11.531Z,29.12
2022-09-12T04:54:38.886Z,29.10
2022-09-12T04:57:06.054Z,29.07
2022-09-12T04:59:36.257Z,29.03
2022-09-12T05:02:06.168Z,29.00
2022-09-12T05:04:36.519Z,28.91
2022-09-12T05:07:07.174Z,28.87
2022-09-12T05:09:35.540Z,28.85
2022-09-12T05:12:04.996Z,28.79
2022-09-12T05:14:33.824Z,28.79
2022-09-12T05:17:02.042Z,28.76
2022-09-12T05:19:30.693Z,28.75
2022-09-12T05:22:00.654Z,28.68
2022-09-12T05:24:28.136Z,28.70
2022-09-12T05:26:55.266Z,28.63
2022-09-12T05:29:22.417Z,28.61
2022-09-12T05:31:52.455Z,28.61
2022-09-12T05:34:20.577Z,28.60
2022-09-12T05:36:47.916Z,28.61
2022-09-12T05:39:15.352Z,28.63
2022-09-12T05:41:42.492Z,28.62
2022-09-12T05:44:14.330Z,28.56
2022-09-12T05:46:44.528Z,28.58
2022-09-12T05:49:13.703Z,28.59
2022-09-12T05:51:43.215Z,28.61
2022-09-12T05:54:12.727Z,28.62
2022-09-12T05:56:44.235Z,28.61
2022-09-12T05:59:17.442Z,28.63
2022-09-12T06:01:49.322Z,28.64
2022-09-12T06:04:17.871Z,28.67
2022-09-12T06:06:45.791Z,28.69
2022-09-12T06:09:17.345Z,28.68
2022-09-12T06:11:46.216Z,28.73
2022-09-12T06:14:15.814Z,28.66
2022-09-12T06:16:47.518Z,28.74
2022-09-12T06:19:19.913Z,28.74
2022-09-12T06:21:49.943Z,28.74
2022-09-12T06:24:18.536Z,28.78
2022-09-12T06:26:45.798Z,28.79
2022-09-12T06:29:14.513Z,28.79
2022-09-12T06:31:43.774Z,28.79
2022-09-12T06:34:17.306Z,28.85
2022-09-12T06:36:47.429Z,28.92
2022-09-12T06:39:19.913Z,28.92
2022-09-12T06:41:48.762Z,28.94
2022-09-12T06:44:21.275Z,29.00
2022-09-12T06:46:49.231Z,29.01
2022-09-12T06:49:19.533Z,29.08
2022-09-12T06:51:46.995Z,29.09
2022-09-12T06:54:17.437Z,29.10
2022-09-12T06:56:47.644Z,29.12
2022-09-12T06:59:14.986Z,29.14
2022-09-12T07:01:45.283Z,29.17
2022-09-12T07:04:16.878Z,29.27
2022-09-12T07:06:52.460Z,29.28
2022-09-12T07:09:19.747Z,29.37
2022-09-12T07:11:47.915Z,29.35
2022-09-12T07:14:15.981Z,29.46
2022-09-12T07:16:46.363Z,29.50
2022-09-12T07:19:13.616Z,29.48
2022-09-12T07:21:41.465Z,29.56
2022-09-12T07:24:11.824Z,29.55
2022-09-12T07:26:40.898Z,29.71
2022-09-12T07:29:35.389Z,29.77
2022-09-12T07:32:02.078Z,29.82
2022-09-12T07:34:29.176Z,29.87
2022-09-12T07:36:56.424Z,29.88
2022-09-12T07:39:23.518Z,29.92
2022-09-12T07:41:50.942Z,29.95
2022-09-12T07:44:18.032Z,29.94
2022-09-12T07:46:45.234Z,30.05
2022-09-12T07:49:12.555Z,30.11
2022-09-12T07:51:39.738Z,30.19
2022-09-12T07:54:10.623Z,30.19
2022-09-12T07:56:39.339Z,30.23
2022-09-12T07:59:07.712Z,30.40
2022-09-12T08:01:35.430Z,30.50
2022-09-12T08:04:03.681Z,30.48
2022-09-12T08:06:32.296Z,30.47
2022-09-12T08:09:00.341Z,30.50
2022-09-12T08:11:38.647Z,30.55
2022-09-12T08:14:05.931Z,30.68
2022-09-12T08:16:38.994Z,30.74
2022-09-12T08:19:06.205Z,30.94
2022-09-12T08:21:34.273Z,31.00
2022-09-12T08:24:09.226Z,31.26
2022-09-12T08:26:36.441Z,31.51
2022-09-12T08:29:04.534Z,31.62
2022-09-12T08:31:37.969Z,31.85
2022-09-12T08:34:06.042Z,31.67
2022-09-12T08:36:34.041Z,31.90
2022-09-12T08:39:05.066Z,32.24
2022-09-12T08:41:35.441Z,32.48
2022-09-12T08:44:19.514Z,32.90
2022-09-12T08:47:14.344Z,33.15
2022-09-12T08:49:59.922Z,33.65
2022-09-12T08:52:45.182Z,33.70
2022-09-12T08:55:31.710Z,33.33
2022-09-12T08:58:20.499Z,33.72
2022-09-12T09:01:32.609Z,33.83
2022-09-12T09:04:32.818Z,34.01
2022-09-12T09:07:44.914Z,33.71
2022-09-12T09:10:15.244Z,33.85
2022-09-12T09:12:42.602Z,33.84
2022-09-12T09:15:37.700Z,33.53
2022-09-12T09:18:20.364Z,33.45
2022-09-12T09:20:47.776Z,33.31
2022-09-12T09:23:27.703Z,33.43
2022-09-12T09:26:00.603Z,33.47
2022-09-12T09:28:42.654Z,33.53
2022-09-12T09:31:19.235Z,33.49
2022-09-12T09:33:52.457Z,33.62
2022-09-12T09:36:52.533Z,33.06
2022-09-12T09:39:47.491Z,32.87
2022-09-12T09:42:20.893Z,32.72
2022-09-12T09:44:49.257Z,33.42
2022-09-12T09:47:18.535Z,33.56
2022-09-12T09:49:46.384Z,33.69
2022-09-12T09:52:17.448Z,33.74
2022-09-12T09:54:49.751Z,34.01
2022-09-12T09:57:35.089Z,34.41
2022-09-12T10:00:32.860Z,34.46
2022-09-12T10:03:14.749Z,34.21
2022-09-12T10:05:53.949Z,34.54
2022-09-12T10:08:26.567Z,34.56
2022-09-12T10:11:17.056Z,34.59
2022-09-12T10:13:58.174Z,35.32
2022-09-12T10:16:29.533Z,35.19
2022-09-12T10:19:00.654Z,35.29
2022-09-12T10:21:48.650Z,35.40
2022-09-12T10:24:31.135Z,35.38
2022-09-12T10:27:06.169Z,35.09
2022-09-12T10:29:48.643Z,35.05
2022-09-12T10:32:36.578Z,34.85
2022-09-12T10:35:12.617Z,35.21
2022-09-12T10:37:43.887Z,36.04
2022-09-12T10:40:24.613Z,35.66
2022-09-12T10:42:57.683Z,35.93
2022-09-12T10:45:25.048Z,35.96
2022-09-12T10:47:54.466Z,35.75
2022-09-12T10:50:44.158Z,36.24
2022-09-12T10:53:21.464Z,35.76
2022-09-12T10:56:10.561Z,36.32
2022-09-12T10:59:24.584Z,36.42
2022-09-12T11:02:15.115Z,36.85
2022-09-12T11:04:58.314Z,37.07
2022-09-12T11:07:31.588Z,37.01
2022-09-12T11:10:21.473Z,36.76
2022-09-12T11:13:04.498Z,36.09
2022-09-12T11:15:53.514Z,35.40
2022-09-12T11:18:52.473Z,35.75
2022-09-12T11:21:45.641Z,36.09
2022-09-12T11:24:24.135Z,36.28
2022-09-12T11:26:51.501Z,36.39
2022-09-12T11:29:30.819Z,36.24
2022-09-12T11:32:11.565Z,36.00
2022-09-12T11:35:18.285Z,35.82
2022-09-12T11:38:18.392Z,36.01
2022-09-12T11:41:10.031Z,35.83
2022-09-12T11:43:54.878Z,35.89
2022-09-12T11:46:40.763Z,36.18
2022-09-12T11:49:13.791Z,35.82
2022-09-12T11:52:02.562Z,35.84
2022-09-12T11:54:58.112Z,35.78
2022-09-12T11:57:40.250Z,36.04
2022-09-12T12:00:24.879Z,36.79
2022-09-12T12:03:03.638Z,37.10
2022-09-12T12:05:52.541Z,36.05
2022-09-12T12:08:25.383Z,35.58
2022-09-12T12:10:59.877Z,35.76
2022-09-12T12:13:47.204Z,35.89
2022-09-12T12:16:34.928Z,35.56
2022-09-12T12:19:10.696Z,35.26
2022-09-12T12:21:55.061Z,36.14
2022-09-12T12:24:25.287Z,36.16
2022-09-12T12:27:01.195Z,36.61
2022-09-12T12:29:44.331Z,36.67
2022-09-12T12:32:11.731Z,36.85
2022-09-12T12:34:41.898Z,36.63
2022-09-12T12:37:23.146Z,36.64
2022-09-12T12:39:51.258Z,36.25
2022-09-12T12:42:36.596Z,36.12
2022-09-12T12:45:13.431Z,36.62
2022-09-12T12:47:49.276Z,36.72
2022-09-12T12:50:16.648Z,36.75
2022-09-12T12:52:46.844Z,37.13
2022-09-12T12:55:39.007Z,37.08
2022-09-12T12:58:22.323Z,37.42
2022-09-12T13:01:11.675Z,37.03
2022-09-12T13:03:46.866Z,36.89
2022-09-12T13:06:54.072Z,36.76
2022-09-12T13:09:30.111Z,36.42
2022-09-12T13:12:10.863Z,35.78
2022-09-12T13:14:47.368Z,36.01
2022-09-12T13:17:27.069Z,36.05
2022-09-12T13:20:26.784Z,36.63
2022-09-12T13:22:53.434Z,36.63
2022-09-12T13:25:35.674Z,37.18
2022-09-12T13:28:15.287Z,36.57
2022-09-12T13:30:56.238Z,36.53
2022-09-12T13:33:49.817Z,36.36
2022-09-12T13:36:48.493Z,36.13
2022-09-12T13:39:36.887Z,35.33
2022-09-12T13:42:22.850Z,35.09
2022-09-12T13:45:07.990Z,35.18
2022-09-12T13:47:38.875Z,34.98
2022-09-12T13:50:09.308Z,34.09
2022-09-12T13:52:38.823Z,34.14
2022-09-12T13:55:15.582Z,33.62
2022-09-12T13:57:45.166Z,33.78
2022-09-12T14:00:20.589Z,33.92
2022-09-12T14:03:08.844Z,33.98
2022-09-12T14:05:38.545Z,33.31
2022-09-12T14:08:08.884Z,33.36
2022-09-12T14:10:40.769Z,33.33
2022-09-12T14:13:26.091Z,33.19
2022-09-12T14:15:56.327Z,33.57
2022-09-12T14:18:38.320Z,33.73
2022-09-12T14:21:38.049Z,33.64
2022-09-12T14:24:10.606Z,33.77
2022-09-12T14:26:40.711Z,34.09
2022-09-12T14:29:17.205Z,34.44
2022-09-12T14:31:45.090Z,34.01
2022-09-12T14:34:19.847Z,33.83
2022-09-12T14:36:50.489Z,33.78
2022-09-12T14:39:17.879Z,33.79
2022-09-12T14:41:46.797Z,32.96
2022-09-12T14:44:26.624Z,33.30
2022-09-12T14:46:54.275Z,33.59
2022-09-12T14:49:34.938Z,33.44
2022-09-12T14:52:08.906Z,33.71
2022-09-12T14:54:38.367Z,34.18
2022-09-12T14:57:42.458Z,33.87
2022-09-12T15:00:21.223Z,34.51
2022-09-12T15:02:53.744Z,34.62
2022-09-12T15:05:24.953Z,34.37
2022-09-12T15:08:00.339Z,33.84
2022-09-12T15:10:38.021Z,34.24
2022-09-12T15:13:16.976Z,33.55
2022-09-12T15:15:47.100Z,33.23
2022-09-12T15:18:15.288Z,33.47
2022-09-12T15:20:48.006Z,32.85
2022-09-12T15:23:26.330Z,32.58
2022-09-12T15:25:53.979Z,32.66
2022-09-12T15:28:24.411Z,32.52
2022-09-12T15:30:55.472Z,32.74
2022-09-12T15:33:25.574Z,32.77
2022-09-12T15:35:54.311Z,32.88
2022-09-12T15:38:26.379Z,33.13
2022-09-12T15:40:54.861Z,33.10
2022-09-12T15:43:23.117Z,33.55
2022-09-12T15:45:51.974Z,33.10
2022-09-12T15:48:21.236Z,33.38
2022-09-12T15:50:48.829Z,33.66
2022-09-12T15:53:18.402Z,33.07
2022-09-12T15:55:48.890Z,32.69
2022-09-12T15:58:18.597Z,32.54
2022-09-12T16:00:46.237Z,32.57
2022-09-12T16:03:25.275Z,32.73
2022-09-12T16:06:01.846Z,32.64
2022-09-12T16:08:31.696Z,32.62
2022-09-12T16:11:20.804Z,32.48
2022-09-12T16:13:52.955Z,32.75
2022-09-12T16:16:20.689Z,32.68
2022-09-12T16:18:51.476Z,32.75
2022-09-12T16:21:21.069Z,32.81
2022-09-12T16:23:51.121Z,32.74
2022-09-12T16:26:26.074Z,32.93
2022-09-12T16:29:00.250Z,32.76
2022-09-12T16:31:29.196Z,32.70
2022-09-12T16:33:56.602Z,33.06
2022-09-12T16:36:24.064Z,32.51
2022-09-12T16:38:53.663Z,32.48
2022-09-12T16:41:25.524Z,32.67
2022-09-12T16:43:53.388Z,32.80
2022-09-12T16:46:23.743Z,32.48
2022-09-12T16:48:53.860Z,32.73
2022-09-12T16:51:24.134Z,32.73
2022-09-12T16:54:00.743Z,32.43
2022-09-12T16:56:29.031Z,32.39
2022-09-12T16:58:56.594Z,32.41
2022-09-12T17:01:26.620Z,32.41
2022-09-12T17:04:04.886Z,32.42
2022-09-12T17:06:33.495Z,32.03
2022-09-12T17:09:03.018Z,32.35
2022-09-12T17:11:33.657Z,32.19
2022-09-12T17:14:06.078Z,32.40
2022-09-12T17:16:36.899Z,32.17
2022-09-12T17:19:05.418Z,31.94
2022-09-12T17:21:32.981Z,32.17
2022-09-12T17:24:00.642Z,32.29
2022-09-12T17:26:27.984Z,32.19
2022-09-12T17:28:55.236Z,32.16
2022-09-12T17:31:22.373Z,32.37
2022-09-12T17:33:49.774Z,32.35
2022-09-12T17:36:21.902Z,32.38
2022-09-12T17:38:50.116Z,32.11
2022-09-12T17:41:20.123Z,32.15
2022-09-12T17:43:51.174Z,32.25
2022-09-12T17:46:20.173Z,32.06
2022-09-12T17:48:59.472Z,32.04
2022-09-12T17:51:30.946Z,32.02
2022-09-12T17:54:06.262Z,32.15
2022-09-12T17:56:37.574Z,32.27
2022-09-12T17:59:06.069Z,32.09
2022-09-12T18:02:18.254Z,31.86
2022-09-12T18:05:01.557Z,31.89
2022-09-12T18:07:38.958Z,31.77
2022-09-12T18:10:37.113Z,31.95
2022-09-12T18:13:08.496Z,32.12
2022-09-12T18:15:36.559Z,32.16
2022-09-12T18:18:04.555Z,32.07
2022-09-12T18:20:35.022Z,32.18
2022-09-12T18:23:04.630Z,32.16
2022-09-12T18:25:34.222Z,31.90
2022-09-12T18:28:02.627Z,32.06
2022-09-12T18:30:31.422Z,32.14
2022-09-12T18:32:58.682Z,32.05
2022-09-12T18:35:25.837Z,32.17
2022-09-12T18:37:56.122Z,32.17
2022-09-12T18:40:23.474Z,32.15
2022-09-12T18:42:51.767Z,32.18
2022-09-12T18:45:19.078Z,32.18
2022-09-12T18:47:46.469Z,32.23
2022-09-12T18:50:13.736Z,32.21
2022-09-12T18:52:41.089Z,32.19
2022-09-12T18:55:08.600Z,32.24
2022-09-12T18:57:39.218Z,32.18
2022-09-12T19:00:12.758Z,32.14
2022-09-12T19:02:40.072Z,31.99
2022-09-12T19:05:13.161Z,32.08
2022-09-12T19:07:40.427Z,32.11
2022-09-12T19:10:10.311Z,32.11
2022-09-12T19:12:40.608Z,32.15
2022-09-12T19:15:11.569Z,32.17
2022-09-12T19:17:42.273Z,32.13
2022-09-12T19:20:16.214Z,32.14
2022-09-12T19:22:47.375Z,32.14
2022-09-12T19:25:15.000Z,32.18
2022-09-12T19:27:45.598Z,32.19
2022-09-12T19:30:13.223Z,32.21
2022-09-12T19:32:43.156Z,32.23
2022-09-12T19:35:14.576Z,32.18
2022-09-12T19:37:41.793Z,32.18
2022-09-12T19:40:12.023Z,32.17
2022-09-12T19:42:41.234Z,32.18
2022-09-12T19:45:08.835Z,32.18
2022-09-12T19:47:36.062Z,32.21
2022-09-12T19:50:29.152Z,32.21
2022-09-12T19:52:56.721Z,32.15
2022-09-12T19:55:26.442Z,32.17
2022-09-12T19:57:56.426Z,32.18
2022-09-12T20:00:24.361Z,32.15
2022-09-12T20:02:53.922Z,32.14
2022-09-12T20:05:22.555Z,32.16
2022-09-12T20:07:51.918Z,32.12
2022-09-12T20:13:18.289Z,32.18
2022-09-12T20:15:46.107Z,32.18
2022-09-12T20:18:21.281Z,32.14
2022-09-12T20:20:50.962Z,32.15
2022-09-12T20:23:18.642Z,32.14
2022-09-12T20:25:51.906Z,32.13
2022-09-12T20:28:19.644Z,32.10
2022-09-12T20:30:50.219Z,32.11
2022-09-12T20:33:17.844Z,32.01
2022-09-12T20:35:47.534Z,32.02
2022-09-12T20:38:14.949Z,32.00
2022-09-12T20:40:49.524Z,31.99
2022-09-12T20:43:19.643Z,31.97
2022-09-12T20:45:47.331Z,31.92
2022-09-12T20:48:21.019Z,31.88
2022-09-12T20:50:52.000Z,31.92
2022-09-12T20:53:22.483Z,31.90
2022-09-12T20:55:54.014Z,31.87
2022-09-12T20:58:25.004Z,31.86
2022-09-12T21:00:52.724Z,31.79
2022-09-12T21:03:23.278Z,31.82
2022-09-12T21:05:53.984Z,31.78
2022-09-12T21:08:21.386Z,31.81
2022-09-12T21:10:51.286Z,31.78
2022-09-12T21:13:18.726Z,31.76
2022-09-12T21:15:48.922Z,31.76
2022-09-12T21:18:16.632Z,31.76
2022-09-12T21:20:44.598Z,31.73
2022-09-12T21:23:12.146Z,31.70
2022-09-12T21:25:40.276Z,31.69
2022-09-12T21:28:15.588Z,31.60
2022-09-12T21:30:44.862Z,31.66
2022-09-12T21:33:15.944Z,31.63
2022-09-12T21:35:44.134Z,31.56
2022-09-12T21:38:12.059Z,31.56
2022-09-12T21:40:39.736Z,31.54
2022-09-12T21:43:11.880Z,31.49
2022-09-12T21:45:41.169Z,31.46
2022-09-12T21:48:08.430Z,31.45
2022-09-12T21:50:38.155Z,31.48
2022-09-12T21:53:05.909Z,31.44
2022-09-12T21:55:33.317Z,31.44
2022-09-12T21:58:00.653Z,31.45
2022-09-12T22:00:31.182Z,31.43
2022-09-12T22:02:59.318Z,31.40
2022-09-12T22:05:30.288Z,31.35
2022-09-12T22:08:01.014Z,31.31
2022-09-12T22:10:33.421Z,31.34
2022-09-12T22:13:01.206Z,31.36
2022-09-12T22:15:46.669Z,31.37
2022-09-12T22:18:14.600Z,31.28
2022-09-12T22:20:41.812Z,31.26
2022-09-12T22:23:30.945Z,31.15
2022-09-12T22:26:00.734Z,31.08
2022-09-12T22:28:30.538Z,31.09
2022-09-12T22:30:58.776Z,30.99
2022-09-12T22:33:30.622Z,30.97
2022-09-12T22:35:58.146Z,30.94
2022-09-12T22:38:26.291Z,31.04
2022-09-12T22:40:53.565Z,31.00
2022-09-12T22:43:20.661Z,31.03
2022-09-12T22:45:48.029Z,31.07
2022-09-12T22:48:17.452Z,31.11
2022-09-12T22:50:45.736Z,31.08
2022-09-12T22:53:12.842Z,31.14
2022-09-12T22:55:40.136Z,31.15
2022-09-12T22:58:07.401Z,31.17
2022-09-12T23:00:35.299Z,31.22
2022-09-12T23:03:02.855Z,31.22
2022-09-12T23:05:30.453Z,31.18
2022-09-12T23:07:57.534Z,31.19
2022-09-12T23:10:26.273Z,31.18
2022-09-12T23:12:55.220Z,31.18
2022-09-12T23:15:22.341Z,31.17
2022-09-12T23:17:49.574Z,31.15
2022-09-12T23:20:16.718Z,31.17
2022-09-12T23:22:43.718Z,31.18
2022-09-12T23:25:10.889Z,31.21
2022-09-12T23:27:40.279Z,31.18
2022-09-12T23:30:08.521Z,31.15
2022-09-12T23:32:38.837Z,31.16
2022-09-12T23:35:07.076Z,31.15
2022-09-12T23:37:34.199Z,31.18
2022-09-12T23:40:01.544Z,31.17
2022-09-12T23:42:28.663Z,31.18
2022-09-12T23:44:55.919Z,31.12
2022-09-12T23:47:22.972Z,31.11
2022-09-12T23:49:53.789Z,31.14
2022-09-12T23:52:21.001Z,31.11
2022-09-12T23:54:48.216Z,31.06
2022-09-12T23:57:16.616Z,31.05
